Time;durP1;ratioP1;P1;durP2;ratioP2;P2;SDS_P1;SDS_P2;PMS_P1;PMS_P2;Temp;Humidity;BMP_temperature;BMP_pressure;BME280_temperature;BME280_humidity;BME280_pressure;Samples;Min_cycle;Max_cycle;Signal;HPM_P1;HPM_P2
2022/05/12 00:01:54;;;;;;;8.03;6.60;;;;;;;;;;5082793;28;20485;-84
2022/05/12 00:04:21;;;;;;;9.57;8.67;;;18.60;99.90;;;;;;5082473;28;20445;-84
2022/05/12 00:06:49;;;;;;;8.97;8.00;;;18.60;99.90;;;;;;5082357;28;20518;-84
2022/05/12 00:09:16;;;;;;;7.77;7.10;;;18.60;99.90;;;;;;5084809;28;20498;-84
2022/05/12 00:11:42;;;;;;;8.57;7.67;;;18.50;99.90;;;;;;5087436;28;20449;-84
2022/05/12 00:14:09;;;;;;;8.90;8.10;;;18.50;99.90;;;;;;5084511;28;20449;-84
2022/05/12 00:16:36;;;;;;;8.20;6.77;;;18.00;99.90;;;;;;5081942;28;20445;-84
2022/05/12 00:19:02;;;;;;;7.40;5.97;;;18.40;99.90;;;;;;5081420;28;20839;-84
2022/05/12 00:21:29;;;;;;;7.90;7.10;;;18.40;99.90;;;;;;5081182;28;21026;-84
2022/05/12 00:23:57;;;;;;;9.07;7.77;;;18.50;99.90;;;;;;5081780;28;20445;-84
2022/05/12 00:26:24;;;;;;;7.80;6.97;;;18.40;99.90;;;;;;5081371;28;20453;-85
2022/05/12 00:28:51;;;;;;;9.00;7.77;;;18.30;99.90;;;;;;5080649;28;20457;-84
2022/05/12 00:31:18;;;;;;;10.47;7.87;;;18.30;99.90;;;;;;5081050;28;20449;-84
2022/05/12 00:33:45;;;;;;;15.13;7.97;;;18.20;99.90;;;;;;5080878;28;20464;-85
2022/05/12 00:36:13;;;;;;;9.03;8.13;;;18.20;99.90;;;;;;5081475;28;20456;-84
2022/05/12 00:38:39;;;;;;;8.17;7.20;;;18.10;99.90;;;;;;5080442;28;20542;-84
2022/05/12 00:41:07;;;;;;;10.97;7.03;;;18.10;99.90;;;;;;5079952;28;20542;-84
2022/05/12 00:43:38;;;;;;;7.20;6.50;;;18.20;99.90;;;;;;5080476;28;20858;-84
2022/05/12 00:46:05;;;;;;;7.90;7.10;;;18.30;99.90;;;;;;5081575;28;20425;-83
2022/05/12 00:48:32;;;;;;;12.67;7.37;;;18.30;99.90;;;;;;5079479;28;20472;-83
2022/05/12 00:50:59;;;;;;;7.00;6.40;;;18.30;99.90;;;;;;5080606;28;20997;-85
2022/05/12 00:53:25;;;;;;;8.20;7.50;;;18.30;99.90;;;;;;5092035;28;20476;-85
2022/05/12 00:55:53;;;;;;;7.83;7.07;;;18.40;99.90;;;;;;5096421;28;20441;-84
2022/05/12 00:58:22;;;;;;;7.07;6.37;;;18.40;99.90;;;;;;5098511;28;20471;-84
2022/05/12 01:00:49;;;;;;;6.40;5.80;;;18.40;99.90;;;;;;5099703;28;20501;-84
2022/05/12 01:03:19;;;;;;;7.53;6.83;;;18.40;99.90;;;;;;5100059;28;20436;-85
2022/05/12 01:05:46;;;;;;;7.90;7.10;;;18.40;99.90;;;;;;5099284;28;20459;-84
2022/05/12 01:08:16;;;;;;;7.40;6.60;;;18.40;99.90;;;;;;5099824;28;20471;-84
2022/05/12 01:10:46;;;;;;;7.00;6.50;;;18.40;99.90;;;;;;5099019;28;20437;-84
2022/05/12 01:13:13;;;;;;;7.20;6.50;;;18.40;99.90;;;;;;5099863;28;20409;-85
2022/05/12 01:15:49;;;;;;;6.67;6.10;;;18.10;99.90;;;;;;5097009;28;20475;-83
2022/05/12 01:18:17;;;;;;;7.83;6.93;;;18.40;99.90;;;;;;5097173;28;20467;-83
2022/05/12 01:20:44;;;;;;;7.83;7.00;;;18.40;99.90;;;;;;5096076;28;20572;-83
2022/05/12 01:23:27;;;;;;;8.57;6.70;;;18.40;99.90;;;;;;5096317;28;20444;-84
2022/05/12 01:25:59;;;;;;;8.83;7.93;;;18.30;99.90;;;;;;5096346;28;20425;-83
2022/05/12 01:28:26;;;;;;;8.00;7.20;;;18.40;99.90;;;;;;5096899;28;20465;-83
2022/05/12 01:30:53;;;;;;;9.97;8.13;;;18.40;99.90;;;;;;5096480;28;20516;-83
2022/05/12 01:33:20;;;;;;;6.77;6.07;;;18.40;99.90;;;;;;5095908;28;20882;-83
2022/05/12 01:35:47;;;;;;;7.20;6.60;;;18.40;99.90;;;;;;5096180;28;20441;-84
2022/05/12 01:38:14;;;;;;;10.87;7.43;;;;;;;;;;5108459;22;20488;-83
2022/05/12 01:40:44;;;;;;;8.03;7.20;;;18.30;99.90;;;;;;5097181;28;20479;-84
2022/05/12 01:43:11;;;;;;;8.93;7.70;;;18.00;99.90;;;;;;5097413;28;20452;-83
2022/05/12 01:45:38;;;;;;;7.67;6.50;;;17.50;99.90;;;;;;5097525;28;20437;-83
2022/05/12 01:48:06;;;;;;;9.57;7.60;;;16.80;99.90;;;;;;5095078;28;20472;-84
2022/05/12 01:50:32;;;;;;;8.73;7.50;;;16.90;99.90;;;;;;5090102;28;20532;-84
2022/05/12 01:52:59;;;;;;;10.77;7.67;;;16.80;99.90;;;;;;5093113;28;20441;-85
2022/05/12 01:55:27;;;;;;;8.47;7.73;;;16.80;99.90;;;;;;5085162;28;20441;-85
2022/05/12 01:57:55;;;;;;;8.50;6.90;;;16.70;99.90;;;;;;5080899;28;20495;-84
2022/05/12 02:00:25;;;;;;;8.30;6.80;;;16.60;99.90;;;;;;5087342;28;20930;-84
2022/05/12 02:02:51;;;;;;;9.00;8.10;;;16.60;99.90;;;;;;5094743;28;20492;-84
2022/05/12 02:05:19;;;;;;;7.83;7.17;;;16.60;99.90;;;;;;5094890;28;20503;-84
2022/05/12 02:07:48;;;;;;;10.93;8.73;;;16.70;99.90;;;;;;5095078;28;20468;-84
2022/05/12 02:10:18;;;;;;;8.33;7.53;;;16.70;99.90;;;;;;5084194;28;20437;-85
2022/05/12 02:12:45;;;;;;;7.80;7.10;;;16.70;99.90;;;;;;5095295;28;20427;-84
2022/05/12 02:15:14;;;;;;;7.63;6.90;;;16.70;99.90;;;;;;5091623;28;20478;-84
2022/05/12 02:17:41;;;;;;;6.77;6.17;;;;;;;;;;5082131;28;20461;-85
2022/05/12 02:20:10;;;;;;;7.43;6.40;;;16.90;99.90;;;;;;5079993;28;20441;-85
2022/05/12 02:22:37;;;;;;;7.03;6.33;;;17.00;99.90;;;;;;5078217;28;20488;-85
2022/05/12 02:25:04;;;;;;;7.13;6.47;;;16.90;99.90;;;;;;5078989;28;20482;-85
2022/05/12 02:27:31;;;;;;;7.50;5.80;;;16.90;99.90;;;;;;5078305;28;21001;-84
2022/05/12 02:29:57;;;;;;;7.87;6.23;;;16.90;99.90;;;;;;5082219;28;20449;-85
2022/05/12 02:32:27;;;;;;;5.43;5.00;;;16.80;99.90;;;;;;5084402;28;20437;-86
2022/05/12 02:34:53;;;;;;;8.60;5.70;;;16.80;99.90;;;;;;5079802;28;20448;-85
2022/05/12 02:37:20;;;;;;;8.53;5.90;;;16.70;99.90;;;;;;5085329;28;20483;-85
2022/05/12 02:39:46;;;;;;;7.30;6.50;;;16.70;99.90;;;;;;5085519;28;20452;-85
2022/05/12 02:42:13;;;;;;;11.80;6.50;;;16.40;99.90;;;;;;5085608;28;20484;-85
2022/05/12 02:44:40;;;;;;;7.43;6.73;;;;;;;;;;5082420;28;20444;-85
2022/05/12 02:47:08;;;;;;;9.00;7.03;;;15.40;99.90;;;;;;5078993;28;20472;-85
2022/05/12 02:49:37;;;;;;;10.70;7.17;;;15.60;99.90;;;;;;5080213;28;20475;-87
2022/05/12 02:52:05;;;;;;;10.90;8.50;;;15.50;99.90;;;;;;5084636;28;20441;-86
2022/05/12 02:54:32;;;;;;;16.30;9.27;;;15.30;99.90;;;;;;5097229;28;20433;-86
2022/05/12 02:56:59;;;;;;;14.87;8.63;;;15.50;99.90;;;;;;5097195;28;20441;-87
2022/05/12 02:59:25;;;;;;;14.43;9.00;;;15.30;99.90;;;;;;5094273;28;20455;-83
2022/05/12 03:01:52;;;;;;;12.13;9.90;;;15.30;99.90;;;;;;5082053;28;20504;-85
2022/05/12 03:04:19;;;;;;;11.97;8.87;;;15.30;99.90;;;;;;5084274;28;20448;-83
2022/05/12 03:06:47;;;;;;;8.37;7.00;;;15.20;99.90;;;;;;5090814;28;20458;-85
2022/05/12 03:09:14;;;;;;;11.13;8.20;;;15.00;99.90;;;;;;5080604;28;20487;-83
2022/05/12 03:11:40;;;;;;;9.37;8.40;;;15.10;99.90;;;;;;5083881;28;20666;-84
2022/05/12 03:14:07;;;;;;;9.33;8.27;;;15.00;99.90;;;;;;5086563;28;20444;-84
2022/05/12 03:16:37;;;;;;;14.00;7.80;;;15.00;99.90;;;;;;5090884;28;20788;-83
2022/05/12 03:19:05;;;;;;;11.07;7.83;;;15.00;99.90;;;;;;5087750;28;20467;-84
2022/05/12 03:21:31;;;;;;;15.30;8.47;;;15.00;99.90;;;;;;5088790;28;20476;-85
2022/05/12 03:24:03;;;;;;;11.07;8.90;;;15.10;99.90;;;;;;5084444;28;20511;-86
2022/05/12 03:26:30;;;;;;;10.20;8.80;;;;;;;;;;5084976;28;20433;-84
2022/05/12 03:28:57;;;;;;;10.43;7.20;;;15.10;99.90;;;;;;5084521;28;20518;-84
2022/05/12 03:31:24;;;;;;;13.77;7.60;;;15.10;99.90;;;;;;5083414;28;20444;-84
2022/05/12 03:33:50;;;;;;;10.87;7.47;;;15.10;99.90;;;;;;5087383;28;20444;-84
2022/05/12 03:36:17;;;;;;;11.40;8.03;;;15.00;99.90;;;;;;5088134;28;20445;-84
2022/05/12 03:38:44;;;;;;;11.60;7.20;;;15.00;99.90;;;;;;5086429;28;20473;-86
2022/05/12 03:41:12;;;;;;;17.00;8.33;;;14.80;99.90;;;;;;5088580;28;20476;-85
2022/05/12 03:46:23;;;;;;;9.70;7.27;;;15.10;99.90;;;;;;5088576;28;20404;-85
2022/05/12 03:48:52;;;;;;;11.00;7.20;;;15.10;99.90;;;;;;5082392;28;20469;-85
2022/05/12 03:51:19;;;;;;;8.80;6.40;;;;;;;;;;5083886;28;20453;-85
2022/05/12 03:53:46;;;;;;;11.17;6.83;;;;;;;;;;5085850;28;20449;-85
2022/05/12 03:56:14;;;;;;;8.90;8.00;;;15.10;99.90;;;;;;5084048;28;20870;-86
2022/05/12 03:58:41;;;;;;;11.20;7.40;;;;;;;;;;5083093;28;20518;-84
2022/05/12 04:01:08;;;;;;;11.60;6.40;;;;;;;;;;5084822;28;20476;-85
2022/05/12 04:03:36;;;;;;;9.37;7.20;;;15.20;99.90;;;;;;5094718;28;20471;-84
2022/05/12 04:06:06;;;;;;;9.83;6.80;;;15.10;99.90;;;;;;5096879;28;20447;-86
2022/05/12 04:08:33;;;;;;;11.33;7.57;;;15.10;99.90;;;;;;5096929;28;20457;-84
2022/05/12 04:11:00;;;;;;;16.80;9.70;;;15.20;99.90;;;;;;5091400;28;20437;-85
2022/05/12 04:13:28;;;;;;;8.03;7.07;;;15.20;99.90;;;;;;5084817;28;20453;-85
2022/05/12 04:15:55;;;;;;;8.60;7.30;;;15.20;99.90;;;;;;5083242;28;20444;-86
2022/05/12 04:18:21;;;;;;;8.60;7.77;;;15.20;99.90;;;;;;5090724;28;20469;-85
2022/05/12 04:20:48;;;;;;;7.47;6.60;;;15.30;99.90;;;;;;5082211;28;20494;-85
2022/05/12 04:23:15;;;;;;;18.30;12.03;;;;;;;;;;5078442;28;20480;-85
2022/05/12 04:25:42;;;;;;;8.90;6.13;;;15.40;99.90;;;;;;5091781;28;20441;-84
2022/05/12 04:28:08;;;;;;;14.10;7.90;;;15.30;99.90;;;;;;5096500;28;20480;-85
2022/05/12 04:30:38;;;;;;;9.60;6.18;;;15.70;99.90;;;;;;5095367;28;20429;-86
2022/05/12 04:35:49;;;;;;;6.40;5.77;;;15.20;99.90;;;;;;5082994;28;20451;-86
2022/05/12 04:38:16;;;;;;;10.10;6.00;;;15.20;99.90;;;;;;5085799;28;20491;-86
2022/05/12 04:40:43;;;;;;;10.93;7.93;;;15.20;99.90;;;;;;5084420;28;20444;-86
2022/05/12 04:43:09;;;;;;;19.00;12.40;;;15.20;99.90;;;;;;5081320;28;20480;-85
2022/05/12 04:45:37;;;;;;;9.50;5.80;;;15.20;99.90;;;;;;5081058;28;20460;-85
2022/05/12 04:48:05;;;;;;;14.10;10.23;;;15.20;99.90;;;;;;5080818;28;20473;-85
2022/05/12 04:50:34;;;;;;;7.27;4.97;;;15.40;99.90;;;;;;5092406;28;20475;-85
2022/05/12 04:53:02;;;;;;;6.37;5.60;;;15.20;99.90;;;;;;5088975;28;20558;-86
2022/05/12 04:55:29;;;;;;;6.73;5.50;;;;;;;;;;5086366;28;20436;-87
2022/05/12 04:57:57;;;;;;;6.40;4.70;;;15.10;99.90;;;;;;5086572;28;20491;-84
2022/05/12 05:00:26;;;;;;;6.10;3.93;;;15.20;99.90;;;;;;5089896;28;20487;-84
2022/05/12 05:02:55;;;;;;;9.43;7.43;;;15.40;99.90;;;;;;5087851;28;20468;-84
2022/05/12 05:05:22;;;;;;;11.03;8.03;;;15.40;99.90;;;;;;5086785;28;20493;-84
2022/05/12 05:07:49;;;;;;;10.50;6.33;;;15.50;99.90;;;;;;5094006;28;20495;-84
2022/05/12 05:10:16;;;;;;;8.33;4.70;;;15.50;99.90;;;;;;5095917;28;20463;-85
2022/05/12 05:12:44;;;;;;;6.20;4.70;;;15.50;99.90;;;;;;5092548;28;20456;-85
2022/05/12 05:15:13;;;;;;;9.60;6.07;;;15.50;99.90;;;;;;5093120;28;20452;-85
2022/05/12 05:17:40;;;;;;;4.27;3.90;;;15.50;99.90;;;;;;5087481;28;20465;-84
2022/05/12 05:20:11;;;;;;;7.63;4.50;;;15.60;99.90;;;;;;5086080;28;20441;-86
2022/05/12 05:22:38;;;;;;;6.53;4.40;;;15.60;99.90;;;;;;5082804;28;20464;-86
2022/05/12 05:25:06;;;;;;;7.30;4.33;;;15.70;99.90;;;;;;5086249;28;20448;-86
2022/05/12 05:27:33;;;;;;;4.80;3.73;;;16.00;99.90;;;;;;5090411;28;20460;-85
2022/05/12 05:29:59;;;;;;;10.10;4.00;;;15.80;99.90;;;;;;5093690;28;20460;-86
2022/05/12 05:32:27;;;;;;;3.60;3.30;;;15.80;99.90;;;;;;5090669;28;20437;-84
2022/05/12 05:34:54;;;;;;;6.63;3.43;;;16.00;99.90;;;;;;5078229;28;20795;-85
2022/05/12 05:37:23;;;;;;;8.03;3.57;;;15.90;99.90;;;;;;5079765;28;20868;-86
2022/05/12 05:39:50;;;;;;;5.40;3.43;;;15.90;99.90;;;;;;5078581;28;20449;-86
2022/05/12 05:42:19;;;;;;;5.07;3.40;;;15.90;99.90;;;;;;5081380;28;20477;-85
2022/05/12 05:44:46;;;;;;;7.03;3.73;;;;;;;;;;5083186;28;20484;-85
2022/05/12 05:47:12;;;;;;;4.70;3.13;;;15.90;99.90;;;;;;5082772;28;20897;-85
2022/05/12 05:49:41;;;;;;;3.97;2.60;;;15.90;99.90;;;;;;5080626;28;20816;-86
2022/05/12 05:54:54;;;;;;;4.57;2.23;;;15.80;99.90;;;;;;5080400;28;20416;-86
2022/05/12 05:57:26;;;;;;;3.20;2.00;;;15.80;99.90;;;;;;5080563;28;20484;-86
2022/05/12 05:59:53;;;;;;;4.23;2.40;;;15.80;99.90;;;;;;5088955;28;20400;-86
2022/05/12 06:02:20;;;;;;;2.23;2.03;;;15.30;99.90;;;;;;5097730;28;20535;-87
2022/05/12 06:04:47;;;;;;;2.30;2.00;;;;;;;;;;5097510;28;20459;-87
2022/05/12 06:07:14;;;;;;;3.27;1.87;;;15.70;99.90;;;;;;5097581;28;20461;-86
2022/05/12 06:09:41;;;;;;;3.10;2.80;;;15.70;99.90;;;;;;5096661;28;20503;-86
2022/05/12 06:12:10;;;;;;;2.60;2.00;;;15.70;99.90;;;;;;5082566;28;20451;-86
2022/05/12 06:14:37;;;;;;;4.20;2.43;;;15.70;99.90;;;;;;5077787;28;20445;-86
2022/05/12 06:17:04;;;;;;;2.87;2.17;;;15.50;99.90;;;;;;5078071;28;20448;-85
2022/05/12 06:19:32;;;;;;;3.87;2.33;;;;;;;;;;5077387;28;20484;-86
2022/05/12 06:21:59;;;;;;;7.30;2.00;;;15.80;99.90;;;;;;5079401;28;20484;-86
2022/05/12 06:24:26;;;;;;;7.20;3.10;;;15.90;99.90;;;;;;5082065;28;20546;-85
2022/05/12 06:26:53;;;;;;;10.87;6.47;;;16.30;99.90;;;;;;5081268;28;20455;-85
2022/05/12 06:29:21;;;;;;;2.53;2.20;;;16.20;99.90;;;;;;5082707;28;20517;-85
2022/05/12 06:31:48;;;;;;;5.17;2.20;;;16.00;99.90;;;;;;5085574;28;20955;-85
2022/05/12 06:34:16;;;;;;;2.87;2.57;;;16.00;99.90;;;;;;5086565;28;20459;-85
2022/05/12 06:36:44;;;;;;;3.00;2.20;;;16.00;99.90;;;;;;5086346;28;20468;-85
2022/05/12 06:39:10;;;;;;;2.53;2.17;;;;;;;;;;5088479;28;20514;-85
2022/05/12 06:41:38;;;;;;;2.30;1.90;;;;;;;;;;5089501;28;20452;-86
2022/05/12 06:44:05;;;;;;;2.10;1.87;;;15.80;99.90;;;;;;5089375;28;20448;-86
2022/05/12 06:46:34;;;;;;;2.33;1.97;;;15.80;99.90;;;;;;5093321;28;20796;-86
2022/05/12 06:49:02;;;;;;;2.40;1.90;;;15.80;99.90;;;;;;5093332;28;20892;-86
2022/05/12 06:51:28;;;;;;;1.63;1.50;;;15.80;99.90;;;;;;5088308;28;20539;-86
2022/05/12 06:53:56;;;;;;;10.33;2.03;;;;;;;;;;5084350;28;20449;-85
2022/05/12 06:56:23;;;;;;;2.77;1.80;;;;;;;;;;5085231;28;20445;-85
2022/05/12 06:58:50;;;;;;;1.60;1.43;;;;;;;;;;5090502;28;20449;-86
2022/05/12 07:01:17;;;;;;;3.57;1.63;;;;;;;;;;5100804;28;20429;-85
2022/05/12 07:03:45;;;;;;;2.70;2.30;;;15.80;99.90;;;;;;5100171;28;20472;-85
2022/05/12 07:06:12;;;;;;;4.20;2.53;;;16.00;99.90;;;;;;5094040;28;20451;-85
2022/05/12 07:08:41;;;;;;;7.97;1.60;;;16.10;99.90;;;;;;5092165;28;20532;-85
2022/05/12 07:11:08;;;;;;;2.67;1.80;;;16.10;99.90;;;;;;5089203;28;20520;-85
2022/05/12 07:13:35;;;;;;;1.47;1.37;;;16.10;99.90;;;;;;5088696;28;20524;-85
2022/05/12 07:16:05;;;;;;;3.07;1.37;;;16.10;99.90;;;;;;5086780;28;20440;-85
2022/05/12 07:18:34;;;;;;;3.10;1.50;;;;;;;;;;5084808;28;21115;-85
2022/05/12 07:26:40;;;;;;;7.10;1.57;;;16.30;99.90;;;;;;5081418;28;20408;-85
2022/05/12 07:29:10;;;;;;;3.77;1.70;;;18.50;99.90;;;;;;5082809;28;20476;-85
2022/05/12 07:31:37;;;;;;;1.90;1.70;;;16.20;99.90;;;;;;5081652;28;20452;-85
2022/05/12 07:34:05;;;;;;;2.50;1.60;;;16.20;99.90;;;;;;5081551;28;20575;-85
2022/05/12 07:36:37;;;;;;;3.73;1.50;;;16.20;99.90;;;;;;5081270;28;20454;-85
2022/05/12 07:42:31;;;;;;;2.43;1.77;;;;;;;;;;5073755;28;20614;-86
2022/05/12 07:44:58;;;;;;;3.80;1.47;;;;;;;;;;5080346;28;20460;-86
2022/05/12 07:47:27;;;;;;;1.50;1.10;;;;;;;;;;5079491;28;20988;-86
2022/05/12 07:49:54;;;;;;;1.10;1.00;;;;;;;;;;5081239;28;20441;-86
2022/05/12 07:52:22;;;;;;;2.57;1.30;;;16.10;99.90;;;;;;5080626;28;20445;-85
2022/05/12 07:54:49;;;;;;;2.90;1.60;;;16.00;99.90;;;;;;5080281;28;20460;-84
2022/05/12 07:57:16;;;;;;;1.80;1.70;;;16.30;99.90;;;;;;5094277;28;20472;-85
2022/05/12 07:59:44;;;;;;;1.77;1.00;;;16.30;99.90;;;;;;5080758;28;20445;-85
2022/05/12 08:02:15;;;;;;;2.93;1.23;;;;;;;;;;5078988;28;20453;-85
2022/05/12 08:04:42;;;;;;;2.00;1.00;;;16.00;99.90;;;;;;5080481;28;20482;-85
2022/05/12 08:07:08;;;;;;;3.37;1.23;;;15.80;99.90;;;;;;5082404;28;20506;-86
2022/05/12 08:09:36;;;;;;;5.63;1.60;;;15.40;99.90;;;;;;5084132;28;20437;-84
2022/05/12 08:12:03;;;;;;;1.40;1.30;;;15.60;99.90;;;;;;5080987;28;20437;-86
2022/05/12 08:14:30;;;;;;;1.63;1.27;;;15.60;99.90;;;;;;5080919;28;20448;-86
2022/05/12 08:16:56;;;;;;;1.33;1.20;;;15.80;99.90;;;;;;5083740;28;20452;-86
2022/05/12 08:19:24;;;;;;;1.20;1.10;;;15.70;99.90;;;;;;5081319;28;20936;-86
2022/05/12 08:21:51;;;;;;;1.57;1.33;;;;;;;;;;5085085;28;20518;-85
2022/05/12 08:24:18;;;;;;;5.73;1.50;;;16.30;99.90;;;;;;5087690;28;20524;-85
2022/05/12 08:26:47;;;;;;;2.40;1.73;;;15.90;99.90;;;;;;5085878;28;20441;-86
2022/05/12 08:29:13;;;;;;;2.07;1.47;;;15.70;99.90;;;;;;5088702;28;20487;-86
2022/05/12 08:31:40;;;;;;;4.30;1.30;;;16.00;99.90;;;;;;5092853;28;20453;-86
2022/05/12 08:34:06;;;;;;;2.50;1.40;;;16.10;99.90;;;;;;5096351;28;20430;-85
2022/05/12 08:36:33;;;;;;;1.73;1.30;;;;;;;;;;5096921;28;20452;-86
2022/05/12 08:39:00;;;;;;;2.77;1.40;;;16.20;99.90;;;;;;5095988;28;20469;-85
2022/05/12 08:41:34;;;;;;;2.10;1.23;;;16.50;99.90;;;;;;5097615;28;20494;-86
2022/05/12 08:44:06;;;;;;;2.23;1.30;;;16.60;99.90;;;;;;5093340;28;20468;-86
2022/05/12 08:46:40;;;;;;;2.60;1.30;;;16.80;99.90;;;;;;5091328;28;20429;-86
2022/05/12 08:49:16;;;;;;;4.10;1.77;;;17.00;99.90;;;;;;5091891;28;20469;-86
2022/05/12 08:51:44;;;;;;;1.90;1.10;;;16.90;99.90;;;;;;5088416;28;20424;-86
2022/05/12 08:54:15;;;;;;;1.30;1.00;;;16.90;99.90;;;;;;5086080;28;20452;-86
2022/05/12 08:56:41;;;;;;;4.80;1.40;;;16.70;99.90;;;;;;5084879;28;20444;-86
2022/05/12 08:59:10;;;;;;;5.00;1.40;;;16.70;99.90;;;;;;5084262;28;20499;-86
2022/05/12 09:01:46;;;;;;;1.73;1.60;;;16.70;99.90;;;;;;5082081;28;20850;-86
2022/05/12 09:04:33;;;;;;;2.10;1.20;;;16.90;99.90;;;;;;5083536;28;20460;-86
2022/05/12 09:07:08;;;;;;;7.70;1.73;;;16.80;99.90;;;;;;5082387;28;20516;-87
2022/05/12 09:09:43;;;;;;;2.30;1.40;;;16.80;99.90;;;;;;5084720;28;20425;-86
2022/05/12 09:12:26;;;;;;;2.27;1.23;;;16.90;99.90;;;;;;5088923;28;20433;-88
2022/05/12 09:15:00;;;;;;;4.33;1.67;;;16.90;99.90;;;;;;5095257;28;20468;-86
2022/05/12 09:17:35;;;;;;;2.60;1.60;;;16.80;99.90;;;;;;5090359;28;20462;-85
2022/05/12 09:20:02;;;;;;;3.33;1.57;;;;;;;;;;5097835;28;20437;-86
2022/05/12 09:22:30;;;;;;;3.80;2.00;;;16.10;99.90;;;;;;5097317;28;20441;-86
2022/05/12 09:24:58;;;;;;;2.30;1.40;;;16.50;99.90;;;;;;5097801;28;20454;-86
2022/05/12 09:27:32;;;;;;;3.50;1.37;;;16.60;99.90;;;;;;5096640;28;20452;-87
2022/05/12 09:30:02;;;;;;;1.53;1.23;;;16.50;99.90;;;;;;5092834;28;20460;-87
2022/05/12 09:32:32;;;;;;;2.50;1.40;;;16.80;99.90;;;;;;5086136;28;20479;-86
2022/05/12 09:35:10;;;;;;;4.60;1.53;;;16.90;99.90;;;;;;5089916;28;20488;-86
2022/05/12 09:37:40;;;;;;;3.17;2.20;;;17.10;99.90;;;;;;5092755;28;20564;-85
2022/05/12 09:40:35;;;;;;;5.90;1.50;;;17.30;99.90;;;;;;5089344;28;20448;-85
2022/05/12 09:43:17;;;;;;;1.20;1.10;;;17.20;99.90;;;;;;5086828;28;20500;-86
2022/05/12 09:46:01;;;;;;;2.00;1.60;;;17.20;99.90;;;;;;5084733;28;20523;-86
2022/05/12 09:48:29;;;;;;;1.70;1.43;;;17.20;99.90;;;;;;5089027;28;20460;-86
2022/05/12 09:51:14;;;;;;;1.30;1.20;;;17.50;99.90;;;;;;5082496;28;20475;-86
2022/05/12 09:53:41;;;;;;;1.40;1.30;;;17.40;99.90;;;;;;5082834;28;20471;-86
2022/05/12 09:56:11;;;;;;;2.50;1.30;;;17.70;99.90;;;;;;5080641;28;21001;-86
2022/05/12 09:58:41;;;;;;;2.70;1.50;;;17.70;99.90;;;;;;5081806;28;20883;-86
2022/05/12 10:01:20;;;;;;;2.00;1.70;;;17.90;99.90;;;;;;5081462;28;20437;-86
2022/05/12 10:09:21;;;;;;;1.90;1.80;;;17.40;99.90;;;;;;5081778;28;20400;-88
2022/05/12 10:11:53;;;;;;;3.20;1.20;;;17.40;99.90;;;;;;5080482;28;20445;-86
2022/05/12 10:14:34;;;;;;;1.83;1.37;;;17.50;99.90;;;;;;5083683;28;20486;-86
2022/05/12 10:17:10;;;;;;;2.47;1.40;;;17.90;99.90;;;;;;5084244;28;20923;-87
2022/05/12 10:19:38;;;;;;;2.53;1.40;;;17.60;99.90;;;;;;5085102;28;20981;-85
2022/05/12 10:22:17;;;;;;;2.23;1.67;;;17.90;99.90;;;;;;5086910;28;20445;-85
2022/05/12 10:24:52;;;;;;;2.03;1.60;;;18.00;99.90;;;;;;5086278;28;20807;-85
2022/05/12 10:27:28;;;;;;;1.80;1.20;;;18.00;99.90;;;;;;5086247;28;20464;-86
2022/05/12 10:30:02;;;;;;;3.53;1.60;;;17.80;99.90;;;;;;5096886;28;20405;-86
2022/05/12 10:32:43;;;;;;;1.23;1.13;;;17.70;99.90;;;;;;5084716;28;20441;-85
2022/05/12 10:35:15;;;;;;;1.10;1.00;;;17.80;99.90;;;;;;5089758;28;20433;-85
2022/05/12 10:37:54;;;;;;;1.30;1.20;;;17.60;99.90;;;;;;5089916;28;20476;-84
2022/05/12 10:40:30;;;;;;;1.30;1.20;;;17.70;99.90;;;;;;5090926;28;20425;-85
2022/05/12 10:43:08;;;;;;;2.73;1.30;;;17.50;99.90;;;;;;5083122;28;20938;-86
2022/05/12 10:45:41;;;;;;;1.83;1.47;;;18.00;99.90;;;;;;5082668;28;20432;-85
2022/05/12 10:48:33;;;;;;;5.17;1.30;;;18.00;99.90;;;;;;5083274;28;20475;-86
2022/05/12 10:51:03;;;;;;;2.23;1.70;;;17.90;99.90;;;;;;5083083;28;20425;-85
2022/05/12 10:53:42;;;;;;;2.33;1.30;;;18.00;99.90;;;;;;5083293;28;20582;-85
2022/05/12 10:56:23;;;;;;;3.07;1.37;;;18.00;99.90;;;;;;5082583;28;20512;-87
2022/05/12 10:59:01;;;;;;;1.97;1.17;;;18.30;99.90;;;;;;5083957;28;20598;-85
2022/05/12 11:01:34;;;;;;;3.10;1.50;;;18.10;99.90;;;;;;5085016;28;20428;-85
2022/05/12 11:04:06;;;;;;;1.83;1.50;;;18.10;99.90;;;;;;5083148;28;20456;-85
2022/05/12 11:06:39;;;;;;;2.97;1.20;;;17.80;99.90;;;;;;5083305;28;20490;-85
2022/05/12 11:09:11;;;;;;;2.93;1.87;;;17.80;99.90;;;;;;5083380;28;20477;-85
2022/05/12 11:11:45;;;;;;;5.53;1.63;;;17.90;99.90;;;;;;5085963;28;20796;-86
2022/05/12 11:14:17;;;;;;;3.13;1.77;;;17.90;99.90;;;;;;5083018;28;20801;-85
2022/05/12 11:16:50;;;;;;;5.37;1.60;;;18.50;99.90;;;;;;5084126;28;20439;-85
2022/05/12 11:19:21;;;;;;;3.53;1.30;;;18.10;99.90;;;;;;5082617;28;20472;-86
2022/05/12 11:21:58;;;;;;;2.53;1.30;;;18.20;99.90;;;;;;5083234;28;20213;-85
2022/05/12 11:24:45;;;;;;;1.70;1.60;;;18.00;99.90;;;;;;5083520;28;20464;-86
2022/05/12 11:27:36;;;;;;;1.53;1.37;;;18.10;99.90;;;;;;5084245;28;20526;-85
2022/05/12 11:30:17;;;;;;;2.10;1.57;;;18.30;99.90;;;;;;5091557;28;20421;-85
2022/05/12 11:32:54;;;;;;;3.13;1.57;;;18.40;99.90;;;;;;5092761;28;20764;-85
2022/05/12 11:35:24;;;;;;;2.50;2.00;;;18.30;99.90;;;;;;5086425;28;20425;-85
2022/05/12 11:38:00;;;;;;;1.33;1.23;;;18.30;99.90;;;;;;5084190;28;20477;-85
2022/05/12 11:40:51;;;;;;;1.77;1.50;;;18.40;99.90;;;;;;5080930;28;20437;-85
2022/05/12 11:46:56;;;;;;;2.27;1.40;;;18.40;99.90;;;;;;5095965;28;20421;-86
2022/05/12 11:49:45;;;;;;;3.03;1.80;;;18.30;99.90;;;;;;5085998;28;20425;-85
2022/05/12 11:52:25;;;;;;;1.90;1.60;;;18.60;99.90;;;;;;5100388;28;20443;-86
2022/05/12 11:54:55;;;;;;;5.50;1.60;;;18.60;99.90;;;;;;5100108;28;20420;-85
2022/05/12 11:57:25;;;;;;;3.77;2.13;;;18.60;99.90;;;;;;5099219;28;20473;-85
2022/05/12 11:59:53;;;;;;;2.90;2.67;;;18.50;99.90;;;;;;5098735;28;20440;-84
2022/05/12 12:02:45;;;;;;;2.20;1.50;;;18.60;99.90;;;;;;5098954;28;20463;-84
2022/05/12 12:05:36;;;;;;;1.67;1.30;;;18.40;99.90;;;;;;5098029;28;20491;-85
2022/05/12 12:08:07;;;;;;;2.70;1.60;;;18.60;99.90;;;;;;5098105;28;20469;-85
2022/05/12 12:10:37;;;;;;;1.80;1.53;;;18.10;99.90;;;;;;5098724;28;20413;-86
2022/05/12 12:13:07;;;;;;;1.93;1.67;;;18.40;99.90;;;;;;5098889;28;20448;-86
2022/05/12 12:16:05;;;;;;;2.40;1.73;;;18.50;99.90;;;;;;5099037;28;20437;-85
2022/05/12 12:18:56;;;;;;;1.33;1.23;;;18.30;99.90;;;;;;5080926;28;20469;-85
2022/05/12 12:21:46;;;;;;;4.17;1.40;;;18.20;99.90;;;;;;5080116;28;20517;-85
2022/05/12 12:24:45;;;;;;;2.33;1.90;;;18.00;99.90;;;;;;5086376;28;20520;-85
2022/05/12 12:28:00;;;;;;;1.93;1.60;;;18.30;99.90;;;;;;5069514;28;20511;-86
2022/05/12 12:30:38;;;;;;;2.80;1.70;;;18.70;99.90;;;;;;5083966;28;20551;-86
2022/05/12 12:33:16;;;;;;;1.30;1.20;;;18.70;99.90;;;;;;5085982;28;20540;-86
2022/05/12 12:36:00;;;;;;;3.97;1.83;;;19.10;99.90;;;;;;5088643;28;20463;-86
2022/05/12 12:39:07;;;;;;;1.87;1.30;;;18.80;99.90;;;;;;5088180;28;20481;-86
2022/05/12 12:41:44;;;;;;;3.90;1.10;;;19.00;99.90;;;;;;5025485;28;20965;-84
2022/05/12 12:44:18;;;;;;;1.50;1.40;;;18.80;99.90;;;;;;5083992;28;20665;-84
2022/05/12 12:46:56;;;;;;;1.40;1.30;;;18.60;99.90;;;;;;5090807;28;20768;-85
2022/05/12 12:49:25;;;;;;;3.03;1.70;;;18.60;99.90;;;;;;5087307;28;20432;-85
2022/05/12 12:51:58;;;;;;;1.77;1.53;;;18.40;99.90;;;;;;5088319;28;20449;-85
2022/05/12 12:57:16;;;;;;;5.60;2.00;;;18.30;99.90;;;;;;5085876;28;20443;-87
2022/05/12 12:59:49;;;;;;;1.63;1.53;;;18.60;99.90;;;;;;5091146;28;20426;-85
2022/05/12 13:02:28;;;;;;;3.80;1.17;;;18.20;99.90;;;;;;5090285;28;20480;-86
2022/05/12 13:04:57;;;;;;;1.70;1.60;;;18.80;99.90;;;;;;5085340;28;20480;-86
2022/05/12 13:07:30;;;;;;;1.60;1.50;;;18.60;99.90;;;;;;5086882;28;20461;-87
2022/05/12 13:09:58;;;;;;;3.30;2.00;;;18.70;99.90;;;;;;5088915;28;20472;-85
2022/05/12 13:12:28;;;;;;;1.40;1.30;;;18.70;99.90;;;;;;5091716;28;20444;-85
2022/05/12 13:14:56;;;;;;;1.97;1.50;;;18.50;99.90;;;;;;5088174;28;20437;-86
2022/05/12 13:17:27;;;;;;;1.70;1.30;;;18.50;99.90;;;;;;5083393;28;20468;-86
2022/05/12 13:19:57;;;;;;;2.33;1.50;;;18.60;99.90;;;;;;5083970;28;20433;-85
2022/05/12 13:22:28;;;;;;;2.40;2.20;;;18.80;99.90;;;;;;5083540;28;20448;-86
2022/05/12 13:24:55;;;;;;;1.97;1.77;;;18.80;99.90;;;;;;5083046;28;20553;-85
2022/05/12 13:27:29;;;;;;;4.43;1.23;;;19.30;99.90;;;;;;5087781;28;20469;-86
2022/05/12 13:29:55;;;;;;;2.13;1.30;;;19.00;99.90;;;;;;5084801;28;20440;-86
2022/05/12 13:32:43;;;;;;;1.90;1.67;;;18.80;99.90;;;;;;5082071;28;20487;-86
2022/05/12 13:35:17;;;;;;;3.47;2.10;;;18.80;99.90;;;;;;5082522;28;20479;-86
2022/05/12 13:37:50;;;;;;;4.80;1.40;;;18.60;99.90;;;;;;5108287;22;20507;-84
2022/05/12 13:40:44;;;;;;;1.43;1.30;;;18.60;99.90;;;;;;5084465;28;20425;-85
2022/05/12 13:43:22;;;;;;;1.80;1.70;;;18.40;99.90;;;;;;5082672;28;20486;-85